Pagina principale
METAR-TAF:

METAR-TAF

Aeroporti :

Aeroporto di Zara-Zemonico

Zara, Croazia

latitudine: 44-06N, longitudine: 015-21E, altezza: 82 m

Osservazione

Il bollettino è stato emesso 31 minuti fa, alle 11:30 UTC
Vento 6 kt da direzioni variabili
Temperature 24°C
Umidità 27%
Pressione 1027 hPa
Visibilità 10 km o più
nessuna nube inferiore a 1500 m e nessun cumulonembo

METAR: LDZD 191130Z VRB06KT CAVOK 24/04 Q1027 TEMPO 31010KT

Ora: 14:01 (12:01 UTC)

Previsione

Il bollettino è stato emesso 36 minuti fa, alle 11:25 UTC
Previsione valida dal 19 alle 12 UTC al 20 alle 12 UTC
Vento 10 kt da nord-ovest
Visibilità 10 km o più
nessuna nube inferiore a 1500 m e nessun cumulonembo
Evoluzione graduale
dal 19 alle 17 UTC al 19 alle 19 UTC
Vento 2 kt da direzioni variabili
Evoluzione graduale
dal 20 alle 09 UTC al 20 alle 11 UTC
Vento 8 kt da nord-ovest

TAF: LDZD 191125Z 1912/2012 31010KT CAVOK TX26/2011Z TN08/2004Z BECMG 1917/1919 VRB02KT BECMG 2009/2011 31008KT

Osservazioni e previsioni meteorologiche di più di 4000 aeroporti (messaggi METAR e TAF).

Le stazioni disponibili sono rappresentate dai dischi gialli e rossi sulla carta.

Puntare il mouse per vedere il nome della stazione.

Clicca sopra per visualizzare le osservazioni e previsioni meteorologiche.

Per cambiare la mappa : fare clic sui pulsanti verdi con una croce nera per ingrandire, il pulsante verde con un trattino per diminuire, o sulla freccia verde per le mappe adiacenti.


METAR-TAF: